Time;durP1;ratioP1;P1;durP2;ratioP2;P2;SDS_P1;SDS_P2;PMS_P1;PMS_P2;Temp;Humidity;BMP_temperature;BMP_pressure;BME280_temperature;BME280_humidity;BME280_pressure;Samples;Min_cycle;Max_cycle;Signal;HPM_P1;HPM_P2
2024/01/08 00:02:24;;;;;;;12.52;7.50;;;;;;;;;;5050168;28;20078;-75
2024/01/08 00:04:50;;;;;;;11.70;8.10;;;;;;;;;;5050682;28;20017;-74
2024/01/08 00:07:16;;;;;;;11.48;7.60;;;;;;;;;;5050237;28;20032;-75
2024/01/08 00:09:42;;;;;;;11.45;7.90;;;;;;;;;;5050952;28;20029;-75
2024/01/08 00:12:08;;;;;;;10.88;7.65;;;;;;;;;;5051293;28;20025;-74
2024/01/08 00:14:34;;;;;;;13.65;8.55;;;;;;;;;;5050966;28;20017;-75
2024/01/08 00:17:00;;;;;;;12.73;8.20;;;;;;;;;;5051266;28;20496;-75
2024/01/08 00:19:26;;;;;;;12.48;8.68;;;;;;;;;;5048885;28;20015;-75
2024/01/08 00:21:52;;;;;;;12.68;7.72;;;;;;;;;;5050979;28;20519;-74
2024/01/08 00:24:18;;;;;;;12.10;7.75;;;;;;;;;;5045335;28;20064;-75
2024/01/08 00:26:44;;;;;;;11.77;8.25;;;;;;;;;;5043257;28;20025;-75
2024/01/08 00:29:10;;;;;;;11.13;7.97;;;;;;;;;;5042066;28;20023;-74
2024/01/08 00:31:36;;;;;;;9.90;7.93;;;;;;;;;;5051007;28;20021;-75
2024/01/08 00:34:02;;;;;;;12.95;8.05;;;;;;;;;;5049129;28;20017;-74
2024/01/08 00:36:28;;;;;;;9.88;7.38;;;;;;;;;;5049219;28;20135;-75
2024/01/08 00:38:55;;;;;;;12.57;8.00;;;;;;;;;;5050793;28;20013;-74
2024/01/08 00:41:21;;;;;;;13.00;8.10;;;;;;;;;;5051133;28;20014;-74
2024/01/08 00:43:47;;;;;;;10.95;8.05;;;;;;;;;;5049043;28;20096;-74
2024/01/08 00:46:13;;;;;;;9.48;7.78;;;;;;;;;;5050768;28;20028;-75
2024/01/08 00:48:39;;;;;;;11.45;8.00;;;;;;;;;;5049021;28;20017;-74
2024/01/08 00:51:05;;;;;;;11.25;7.63;;;;;;;;;;5049106;28;20104;-75
2024/01/08 00:53:31;;;;;;;9.95;7.28;;;;;;;;;;5045373;28;20017;-75
2024/01/08 00:55:56;;;;;;;14.77;8.13;;;;;;;;;;5050336;28;20275;-74
2024/01/08 00:58:22;;;;;;;10.90;7.47;;;;;;;;;;5050123;28;20021;-75
2024/01/08 01:00:48;;;;;;;10.70;7.75;;;;;;;;;;5050597;28;20017;-74
2024/01/08 01:03:14;;;;;;;10.20;7.38;;;;;;;;;;5048649;28;20010;-75
2024/01/08 01:05:40;;;;;;;12.43;7.75;;;;;;;;;;5050193;28;20025;-75
2024/01/08 01:08:06;;;;;;;12.85;7.93;;;;;;;;;;5048634;28;20013;-74
2024/01/08 01:10:32;;;;;;;11.68;7.35;;;;;;;;;;5048827;28;20108;-75
2024/01/08 01:12:58;;;;;;;11.82;7.43;;;;;;;;;;5048687;28;20063;-75
2024/01/08 01:15:24;;;;;;;10.30;6.95;;;;;;;;;;5047690;28;20052;-75
2024/01/08 01:17:50;;;;;;;12.27;7.57;;;;;;;;;;5047912;28;20021;-75
2024/01/08 01:20:16;;;;;;;9.25;7.30;;;;;;;;;;5048586;28;20467;-75
2024/01/08 01:22:42;;;;;;;9.77;7.55;;;;;;;;;;5035120;28;20074;-74
2024/01/08 01:25:09;;;;;;;11.05;7.15;;;;;;;;;;5048646;28;20029;-75
2024/01/08 01:27:35;;;;;;;11.30;7.30;;;;;;;;;;5048550;28;20407;-75
2024/01/08 01:30:01;;;;;;;9.13;6.90;;;;;;;;;;5049828;28;20547;-75
2024/01/08 01:32:27;;;;;;;11.50;7.25;;;;;;;;;;5042384;28;20028;-75
2024/01/08 01:34:53;;;;;;;10.50;7.13;;;;;;;;;;5040842;28;20040;-75
2024/01/08 01:37:19;;;;;;;8.55;6.82;;;;;;;;;;5049573;28;20087;-75
2024/01/08 01:39:45;;;;;;;8.85;7.13;;;;;;;;;;5043557;28;20013;-75
2024/01/08 01:42:11;;;;;;;9.93;7.20;;;;;;;;;;5042330;28;20064;-75
2024/01/08 01:44:37;;;;;;;9.88;6.55;;;;;;;;;;5040821;28;20017;-75
2024/01/08 01:47:03;;;;;;;10.85;7.35;;;;;;;;;;5048298;28;20032;-74
2024/01/08 01:49:29;;;;;;;9.55;7.13;;;;;;;;;;5048219;28;20055;-74
2024/01/08 01:51:56;;;;;;;10.43;7.20;;;;;;;;;;5047906;28;20127;-74
2024/01/08 01:54:23;;;;;;;9.57;7.55;;;;;;;;;;5049297;28;20013;-74
2024/01/08 01:56:51;;;;;;;9.15;7.20;;;;;;;;;;5043225;28;20021;-75
2024/01/08 01:59:18;;;;;;;9.38;7.60;;;;;;;;;;5042801;28;20013;-75
2024/01/08 02:01:45;;;;;;;9.98;7.72;;;;;;;;;;5049008;28;20033;-75
2024/01/08 02:04:12;;;;;;;9.88;7.05;;;;;;;;;;5047671;28;20056;-75
2024/01/08 02:06:38;;;;;;;9.70;6.95;;;;;;;;;;5048138;28;20013;-75
2024/01/08 02:09:05;;;;;;;10.25;7.07;;;;;;;;;;5035927;28;20277;-75
2024/01/08 02:11:31;;;;;;;9.93;7.35;;;;;;;;;;5047886;28;20469;-75
2024/01/08 02:13:57;;;;;;;10.02;7.55;;;;;;;;;;5047368;28;20388;-75
2024/01/08 02:16:23;;;;;;;10.38;7.38;;;;;;;;;;5048941;28;20021;-75
2024/01/08 02:18:49;;;;;;;11.25;7.80;;;;;;;;;;5047686;28;20025;-74
2024/01/08 02:21:15;;;;;;;11.00;7.97;;;;;;;;;;5049011;28;20024;-74
2024/01/08 02:23:41;;;;;;;11.65;8.00;;;;;;;;;;5040388;28;20040;-75
2024/01/08 02:26:07;;;;;;;12.95;7.85;;;;;;;;;;5046821;28;20052;-74
2024/01/08 02:28:33;;;;;;;8.32;7.15;;;;;;;;;;5046894;28;20033;-75
2024/01/08 02:31:00;;;;;;;11.70;7.47;;;;;;;;;;5046954;28;20107;-74
2024/01/08 02:33:26;;;;;;;13.40;8.25;;;;;;;;;;5043221;28;20481;-75
2024/01/08 02:35:52;;;;;;;10.27;7.00;;;;;;;;;;5037815;28;20093;-75
2024/01/08 02:38:19;;;;;;;10.88;7.70;;;;;;;;;;5047155;28;20416;-74
2024/01/08 02:40:45;;;;;;;10.45;7.10;;;;;;;;;;5046399;28;20017;-75
2024/01/08 02:43:11;;;;;;;10.18;7.07;;;;;;;;;;5048439;28;20024;-74
2024/01/08 02:45:37;;;;;;;9.60;6.82;;;;;;;;;;5047346;28;20040;-74
2024/01/08 02:48:03;;;;;;;11.93;7.60;;;;;;;;;;5047085;28;20017;-74
2024/01/08 02:50:29;;;;;;;12.15;7.47;;;;;;;;;;5048702;28;20496;-75
2024/01/08 02:52:55;;;;;;;10.65;7.18;;;;;;;;;;5047218;28;20009;-75
2024/01/08 02:55:21;;;;;;;10.10;7.57;;;;;;;;;;5047420;28;20302;-75
2024/01/08 02:57:47;;;;;;;10.07;7.65;;;;;;;;;;5046852;28;20401;-74
2024/01/08 03:00:13;;;;;;;9.10;7.22;;;;;;;;;;5048199;28;20014;-74
2024/01/08 03:02:39;;;;;;;9.50;7.80;;;;;;;;;;5047169;28;20036;-75
2024/01/08 03:05:06;;;;;;;11.15;8.05;;;;;;;;;;5048520;28;20024;-74
2024/01/08 03:07:32;;;;;;;10.30;7.60;;;;;;;;;;5048867;28;20039;-74
2024/01/08 03:09:59;;;;;;;11.48;8.18;;;;;;;;;;5048238;28;20475;-74
2024/01/08 03:12:25;;;;;;;10.48;8.10;;;;;;;;;;5046906;28;20441;-74
2024/01/08 03:14:52;;;;;;;12.55;8.63;;;;;;;;;;5048042;28;20032;-74
2024/01/08 03:17:18;;;;;;;11.07;8.73;;;;;;;;;;5046957;28;20051;-74
2024/01/08 03:19:44;;;;;;;12.55;8.40;;;;;;;;;;5033720;28;20014;-75
2024/01/08 03:22:10;;;;;;;12.43;8.52;;;;;;;;;;5048214;28;20044;-75
2024/01/08 03:24:36;;;;;;;10.60;8.18;;;;;;;;;;5048077;28;20460;-74
2024/01/08 03:27:03;;;;;;;12.32;7.88;;;;;;;;;;5047097;28;20112;-74
2024/01/08 03:29:29;;;;;;;13.23;8.70;;;;;;;;;;5046647;28;20052;-74
2024/01/08 03:31:55;;;;;;;11.60;9.00;;;;;;;;;;5047478;28;20121;-74
2024/01/08 03:34:21;;;;;;;10.93;8.40;;;;;;;;;;5046846;28;20104;-74
2024/01/08 03:36:48;;;;;;;10.63;8.18;;;;;;;;;;5047911;28;20378;-75
2024/01/08 03:39:15;;;;;;;10.23;8.32;;;;;;;;;;5048124;28;20020;-75
2024/01/08 03:41:41;;;;;;;12.85;8.95;;;;;;;;;;5050771;28;20642;-75
2024/01/08 03:44:08;;;;;;;11.45;8.82;;;;;;;;;;5052000;28;20027;-74
2024/01/08 03:46:34;;;;;;;12.95;8.85;;;;;;;;;;5052162;28;20009;-75
2024/01/08 03:49:00;;;;;;;13.13;9.13;;;;;;;;;;5050302;28;20028;-74
2024/01/08 03:51:27;;;;;;;11.65;9.13;;;;;;;;;;5050636;28;20021;-74
2024/01/08 03:53:53;;;;;;;11.80;8.90;;;;;;;;;;5037040;28;20053;-75
2024/01/08 03:56:19;;;;;;;10.63;8.65;;;;;;;;;;5051477;28;20540;-74
2024/01/08 03:58:45;;;;;;;13.10;9.43;;;;;;;;;;5050578;28;20048;-75
2024/01/08 04:01:14;;;;;;;11.73;8.65;;;;;;;;;;5050301;28;20440;-75
2024/01/08 04:03:40;;;;;;;11.02;8.70;;;;;;;;;;5051121;28;20056;-74
2024/01/08 04:06:06;;;;;;;12.52;9.10;;;;;;;;;;5043915;28;20053;-74
2024/01/08 04:08:32;;;;;;;11.20;9.00;;;;;;;;;;5049820;28;20017;-74
2024/01/08 04:10:58;;;;;;;12.40;8.77;;;;;;;;;;5050296;28;20017;-74
2024/01/08 04:13:24;;;;;;;10.57;8.70;;;;;;;;;;5049134;28;20067;-75
2024/01/08 04:15:50;;;;;;;11.25;9.00;;;;;;;;;;5030551;28;20036;-74
2024/01/08 04:18:17;;;;;;;11.93;8.20;;;;;;;;;;5047122;28;20321;-75
2024/01/08 04:20:43;;;;;;;11.55;8.10;;;;;;;;;;5050387;28;20070;-75
2024/01/08 04:23:09;;;;;;;12.38;8.23;;;;;;;;;;5051233;28;20719;-75
2024/01/08 04:25:35;;;;;;;10.98;7.80;;;;;;;;;;5051284;28;20024;-74
2024/01/08 04:28:01;;;;;;;10.43;8.15;;;;;;;;;;5049556;28;20016;-74
2024/01/08 04:30:27;;;;;;;11.23;8.40;;;;;;;;;;5049731;28;20017;-74
2024/01/08 04:32:53;;;;;;;10.77;8.02;;;;;;;;;;5048645;28;20028;-75
2024/01/08 04:35:19;;;;;;;9.80;7.80;;;;;;;;;;5049505;28;20087;-74
2024/01/08 04:37:45;;;;;;;8.93;7.97;;;;;;;;;;5049088;28;20041;-74
2024/01/08 04:40:11;;;;;;;10.82;8.13;;;;;;;;;;5049293;28;20079;-74
2024/01/08 04:42:37;;;;;;;11.02;8.35;;;;;;;;;;5050894;28;20091;-75
2024/01/08 04:45:04;;;;;;;9.38;7.95;;;;;;;;;;5049525;28;20536;-75
2024/01/08 04:47:30;;;;;;;10.85;8.13;;;;;;;;;;5050391;28;20021;-74
2024/01/08 04:49:56;;;;;;;9.55;7.82;;;;;;;;;;5040542;28;20017;-75
2024/01/08 04:52:22;;;;;;;10.25;7.93;;;;;;;;;;5044166;28;20500;-75
2024/01/08 04:54:49;;;;;;;11.02;8.20;;;;;;;;;;5049231;28;20074;-75
2024/01/08 04:57:15;;;;;;;10.82;8.57;;;;;;;;;;5049048;28;20036;-75
2024/01/08 04:59:41;;;;;;;11.88;8.07;;;;;;;;;;5049064;28;20048;-75
2024/01/08 05:02:08;;;;;;;11.75;8.15;;;;;;;;;;5050098;28;20092;-74
2024/01/08 05:04:34;;;;;;;14.93;8.93;;;;;;;;;;5048983;28;20106;-75
2024/01/08 05:07:00;;;;;;;10.93;8.35;;;;;;;;;;5050447;28;20025;-75
2024/01/08 05:09:26;;;;;;;12.02;8.60;;;;;;;;;;5050215;28;20013;-75
2024/01/08 05:11:52;;;;;;;11.88;8.38;;;;;;;;;;5048711;28;20025;-75
2024/01/08 05:14:18;;;;;;;11.45;9.05;;;;;;;;;;5048974;28;20639;-74
2024/01/08 05:16:44;;;;;;;13.00;9.13;;;;;;;;;;5046870;28;20024;-75
2024/01/08 05:19:10;;;;;;;13.02;9.68;;;;;;;;;;5048055;28;20014;-75
2024/01/08 05:21:36;;;;;;;14.45;10.95;;;;;;;;;;5035897;28;20024;-74
2024/01/08 05:24:02;;;;;;;12.20;9.73;;;;;;;;;;5048615;28;20477;-75
2024/01/08 05:26:28;;;;;;;14.10;9.50;;;;;;;;;;5049723;28;20416;-75
2024/01/08 05:28:54;;;;;;;12.27;8.98;;;;;;;;;;5048561;28;20523;-75
2024/01/08 05:31:22;;;;;;;12.45;9.20;;;;;;;;;;5048154;28;20012;-74
2024/01/08 05:33:49;;;;;;;10.88;8.90;;;;;;;;;;5049709;28;20130;-74
2024/01/08 05:36:15;;;;;;;27.60;16.70;;;;;;;;;;5049206;28;20040;-75
2024/01/08 05:38:41;;;;;;;13.70;9.23;;;;;;;;;;5041155;28;20029;-75
2024/01/08 05:41:07;;;;;;;13.02;9.82;;;;;;;;;;5044488;28;20029;-75
2024/01/08 05:43:40;;;;;;;17.02;12.85;;;;;;;;;;5048370;28;20377;-74
2024/01/08 05:46:06;;;;;;;20.35;13.25;;;;;;;;;;5049359;28;20020;-75
2024/01/08 05:48:39;;;;;;;13.07;8.48;;;;;;;;;;5048239;28;20021;-75
2024/01/08 05:51:05;;;;;;;13.00;8.25;;;;;;;;;;5049291;28;20016;-75
2024/01/08 05:53:31;;;;;;;11.15;8.32;;;;;;;;;;5048041;28;20028;-75
2024/01/08 05:55:57;;;;;;;11.23;7.15;;;;;;;;;;5047727;28;20029;-74
2024/01/08 05:58:23;;;;;;;9.88;6.97;;;;;;;;;;5048142;28;20020;-75
2024/01/08 06:00:50;;;;;;;8.73;6.40;;;;;;;;;;5047931;28;20020;-75
2024/01/08 06:03:16;;;;;;;9.52;6.70;;;;;;;;;;5047330;28;20381;-74
2024/01/08 06:05:43;;;;;;;9.15;6.10;;;;;;;;;;5047518;28;20048;-75
2024/01/08 06:08:09;;;;;;;7.43;6.10;;;;;;;;;;5049333;28;20013;-75
2024/01/08 06:10:35;;;;;;;7.22;5.40;;;;;;;;;;5047708;28;20013;-74
2024/01/08 06:13:01;;;;;;;12.63;5.82;;;;;;;;;;5047986;28;20102;-75
2024/01/08 06:15:27;;;;;;;7.93;5.65;;;;;;;;;;5048629;28;20021;-74
2024/01/08 06:17:53;;;;;;;7.80;5.13;;;;;;;;;;5047906;28;20025;-74
2024/01/08 06:20:19;;;;;;;6.93;5.03;;;;;;;;;;5048683;28;20028;-75
2024/01/08 06:22:45;;;;;;;8.55;5.10;;;;;;;;;;5047857;28;20009;-74
2024/01/08 06:25:11;;;;;;;7.65;5.15;;;;;;;;;;5042659;28;20381;-75
2024/01/08 06:27:37;;;;;;;7.15;4.90;;;;;;;;;;5028262;28;20021;-75
2024/01/08 06:30:03;;;;;;;8.20;4.90;;;;;;;;;;5041153;28;20025;-75
2024/01/08 06:32:29;;;;;;;8.32;5.25;;;;;;;;;;5039867;28;20055;-75
2024/01/08 06:34:56;;;;;;;7.07;5.03;;;;;;;;;;5047001;28;20052;-75
2024/01/08 06:37:22;;;;;;;8.25;5.45;;;;;;;;;;5048678;28;20112;-74
2024/01/08 06:39:48;;;;;;;7.68;4.97;;;;;;;;;;5047241;28;20505;-75
2024/01/08 06:42:14;;;;;;;6.25;4.95;;;;;;;;;;5047629;28;20020;-74
2024/01/08 06:44:40;;;;;;;8.93;5.20;;;;;;;;;;5047214;28;20013;-75
2024/01/08 06:47:06;;;;;;;7.45;4.88;;;;;;;;;;5047341;28;20422;-75
2024/01/08 06:49:34;;;;;;;8.65;5.68;;;;;;;;;;5038836;28;20017;-74
2024/01/08 06:52:00;;;;;;;8.10;5.68;;;;;;;;;;5045281;28;20036;-75
2024/01/08 06:54:26;;;;;;;8.43;5.35;;;;;;;;;;5048460;28;20382;-74
2024/01/08 06:56:52;;;;;;;6.82;5.43;;;;;;;;;;5046545;28;20029;-75
2024/01/08 06:59:19;;;;;;;7.85;5.65;;;;;;;;;;5047380;28;20025;-74
2024/01/08 07:01:45;;;;;;;8.70;5.63;;;;;;;;;;5044168;28;20018;-76
2024/01/08 07:04:11;;;;;;;8.23;5.60;;;;;;;;;;5047543;28;20036;-77
2024/01/08 07:06:37;;;;;;;7.32;5.63;;;;;;;;;;5048233;28;20021;-75
2024/01/08 07:09:03;;;;;;;9.13;6.00;;;;;;;;;;5048128;28;20049;-75
2024/01/08 07:11:29;;;;;;;8.05;6.20;;;;;;;;;;5032337;28;20034;-75
2024/01/08 07:13:55;;;;;;;10.60;5.78;;;;;;;;;;5029845;28;20034;-75
2024/01/08 07:16:21;;;;;;;10.25;6.15;;;;;;;;;;5044860;28;20027;-74
2024/01/08 07:18:47;;;;;;;8.15;5.95;;;;;;;;;;5050539;28;20424;-75
2024/01/08 07:21:16;;;;;;;13.63;9.43;;;;;;;;;;5047017;28;20040;-74
2024/01/08 07:23:43;;;;;;;11.13;7.32;;;;;;;;;;5041181;28;20419;-75
2024/01/08 07:26:10;;;;;;;9.00;6.53;;;;;;;;;;5050064;28;20100;-74
2024/01/08 07:28:36;;;;;;;10.10;7.07;;;;;;;;;;5037726;28;20031;-75
2024/01/08 07:31:03;;;;;;;10.38;6.43;;;;;;;;;;5042494;28;20091;-75
2024/01/08 07:33:30;;;;;;;9.85;7.15;;;;;;;;;;5051060;28;20087;-74
2024/01/08 07:35:56;;;;;;;8.77;7.05;;;;;;;;;;5050327;28;20052;-75
2024/01/08 07:38:22;;;;;;;8.70;5.85;;;;;;;;;;5050199;28;20023;-75
2024/01/08 07:40:48;;;;;;;8.88;6.68;;;;;;;;;;5051780;28;20083;-75
2024/01/08 07:43:14;;;;;;;11.68;7.03;;;;;;;;;;5049920;28;20525;-74
2024/01/08 07:45:40;;;;;;;10.93;7.95;;;;;;;;;;5048128;28;20100;-75
2024/01/08 07:48:06;;;;;;;11.13;6.45;;;;;;;;;;5050486;28;20511;-75
2024/01/08 07:50:32;;;;;;;10.93;7.43;;;;;;;;;;5050641;28;20022;-75
2024/01/08 07:52:58;;;;;;;15.75;9.95;;;;;;;;;;5050541;28;20035;-75
2024/01/08 07:55:24;;;;;;;12.88;8.07;;;;;;;;;;5047015;28;20463;-75
2024/01/08 07:57:50;;;;;;;14.20;8.30;;;;;;;;;;5047888;28;20025;-74
2024/01/08 08:00:17;;;;;;;13.07;7.20;;;;;;;;;;5050261;28;20029;-75
2024/01/08 08:02:43;;;;;;;13.90;7.60;;;;;;;;;;5050264;28;20086;-75
2024/01/08 08:05:09;;;;;;;14.18;7.70;;;;;;;;;;5051406;28;20025;-74
2024/01/08 08:07:39;;;;;;;10.05;5.97;;;;;;;;;;5051384;28;20025;-74
2024/01/08 08:10:05;;;;;;;10.13;7.03;;;;;;;;;;5050402;28;20434;-74
2024/01/08 08:12:32;;;;;;;11.90;6.90;;;;;;;;;;5039912;28;20036;-73
2024/01/08 08:14:58;;;;;;;12.02;6.45;;;;;;;;;;5044809;28;20367;-73
2024/01/08 08:17:25;;;;;;;8.35;5.40;;;;;;;;;;5050887;28;20029;-73
2024/01/08 08:19:51;;;;;;;7.85;5.15;;;;;;;;;;5037469;28;20025;-73
2024/01/08 08:22:17;;;;;;;9.20;5.63;;;;;;;;;;5050515;28;20036;-73
2024/01/08 08:24:46;;;;;;;8.65;5.30;;;;;;;;;;5049056;28;20078;-74
2024/01/08 08:27:12;;;;;;;11.05;6.18;;;;;;;;;;5049299;28;20378;-73
2024/01/08 08:29:45;;;;;;;8.68;5.68;;;;;;;;;;5049066;28;20025;-73
2024/01/08 08:32:11;;;;;;;9.75;5.85;;;;;;;;;;5045948;28;20040;-74
2024/01/08 08:34:39;;;;;;;8.77;5.88;;;;;;;;;;5044327;28;20111;-77
2024/01/08 08:37:05;;;;;;;9.68;6.50;;;;;;;;;;5039444;28;20457;-74
2024/01/08 08:39:31;;;;;;;11.57;6.65;;;;;;;;;;5051355;28;20496;-74
2024/01/08 08:41:57;;;;;;;10.88;6.28;;;;;;;;;;5046608;28;20422;-73
2024/01/08 08:44:23;;;;;;;10.15;6.25;;;;;;;;;;5050515;28;20500;-73
2024/01/08 08:46:49;;;;;;;10.07;5.72;;;;;;;;;;5048965;28;20040;-73
2024/01/08 08:49:16;;;;;;;10.10;5.88;;;;;;;;;;5049560;28;20021;-74
2024/01/08 08:51:42;;;;;;;10.65;5.68;;;;;;;;;;5049371;28;20502;-73
2024/01/08 08:54:08;;;;;;;12.02;6.18;;;;;;;;;;5049472;28;20180;-73
2024/01/08 08:56:34;;;;;;;9.50;6.57;;;;;;;;;;5041737;28;20436;-74
2024/01/08 08:59:01;;;;;;;10.02;5.95;;;;;;;;;;5038938;28;20029;-74
2024/01/08 09:01:27;;;;;;;9.13;5.70;;;;;;;;;;5049302;28;20032;-74
2024/01/08 09:03:53;;;;;;;8.43;5.13;;;;;;;;;;5045376;28;20033;-74
2024/01/08 09:06:24;;;;;;;7.43;4.90;;;;;;;;;;5049460;28;20028;-74
2024/01/08 09:08:50;;;;;;;;;;;;;;;;;;5049280;28;20024;-73
2024/01/08 09:11:16;;;;;;;9.65;5.05;;;;;;;;;;5049163;28;19909;-74
2024/01/08 09:13:42;;;;;;;8.23;4.70;;;;;;;;;;5048897;28;20082;-75
2024/01/08 09:16:12;;;;;;;9.60;5.03;;;;;;;;;;5047696;28;20040;-74
2024/01/08 09:18:38;;;;;;;9.10;4.60;;;;;;;;;;5043463;28;20025;-75
2024/01/08 09:21:06;;;;;;;11.02;4.47;;;;;;;;;;5048263;28;20110;-75
2024/01/08 09:23:32;;;;;;;8.93;4.30;;;;;;;;;;5048437;28;20040;-75
2024/01/08 09:25:58;;;;;;;10.30;4.60;;;;;;;;;;5053866;28;20060;-75
2024/01/08 09:28:24;;;;;;;8.70;4.38;;;;;;;;;;5049723;28;20619;-75
2024/01/08 09:30:50;;;;;;;6.03;3.67;;;;;;;;;;5054683;28;20174;-75
2024/01/08 09:33:16;;;;;;;7.68;3.45;;;;;;;;;;5056026;28;20024;-74
2024/01/08 09:35:42;;;;;;;8.13;4.07;;;;;;;;;;5051709;28;20041;-75
2024/01/08 09:38:08;;;;;;;5.70;3.78;;;;;;;;;;5045542;28;20024;-75
2024/01/08 09:40:35;;;;;;;7.30;3.22;;;;;;;;;;5053892;28;20021;-75
2024/01/08 09:43:04;;;;;;;6.70;3.63;;;;;;;;;;5049770;28;20032;-75
2024/01/08 09:45:30;;;;;;;6.80;3.42;;;;;;;;;;5047183;28;20017;-75
2024/01/08 09:47:56;;;;;;;7.95;3.30;;;;;;;;;;5049449;28;20040;-75
2024/01/08 09:50:22;;;;;;;7.20;3.50;;;;;;;;;;5048397;28;20028;-75
2024/01/08 09:52:50;;;;;;;5.63;3.58;;;;;;;;;;5049311;28;20024;-74
2024/01/08 09:55:16;;;;;;;7.75;3.30;;;;;;;;;;5049025;28;20029;-75
2024/01/08 09:57:42;;;;;;;7.88;4.03;;;;;;;;;;5049129;28;20037;-75
2024/01/08 10:00:09;;;;;;;6.80;3.70;;;;;;;;;;5048045;28;20021;-75
2024/01/08 10:02:35;;;;;;;7.78;3.97;;;;;;;;;;5047935;28;20029;-75
2024/01/08 10:05:02;;;;;;;5.60;3.13;;;;;;;;;;5049055;28;20017;-75
2024/01/08 10:07:34;;;;;;;6.65;3.42;;;;;;;;;;5047172;28;20115;-75
2024/01/08 10:10:00;;;;;;;6.18;2.95;;;;;;;;;;5049129;28;20031;-75
2024/01/08 10:12:28;;;;;;;6.47;3.10;;;;;;;;;;5047319;28;20071;-75
2024/01/08 10:14:55;;;;;;;6.47;2.90;;;;;;;;;;5047960;28;20021;-75
2024/01/08 10:17:21;;;;;;;6.45;3.13;;;;;;;;;;5047042;28;20142;-75
2024/01/08 10:19:47;;;;;;;6.75;3.22;;;;;;;;;;5047317;28;20021;-75
2024/01/08 10:22:14;;;;;;;5.53;3.00;;;;;;;;;;5047638;28;20127;-75
2024/01/08 10:24:46;;;;;;;5.18;2.90;;;;;;;;;;5047212;28;20104;-75
2024/01/08 10:27:12;;;;;;;6.93;2.90;;;;;;;;;;5047890;28;20032;-75
2024/01/08 10:29:40;;;;;;;6.88;3.00;;;;;;;;;;5047986;28;20456;-75
2024/01/08 10:32:06;;;;;;;4.10;2.78;;;;;;;;;;5047516;28;20029;-75
2024/01/08 10:34:33;;;;;;;5.05;2.60;;;;;;;;;;5048809;28;20029;-75
2024/01/08 10:36:59;;;;;;;5.97;2.72;;;;;;;;;;5049095;28;20033;-75
2024/01/08 10:39:32;;;;;;;5.97;2.88;;;;;;;;;;5068043;28;20025;-75
2024/01/08 10:41:58;;;;;;;5.38;2.83;;;;;;;;;;5063394;28;20020;-75
2024/01/08 10:44:25;;;;;;;5.97;4.05;;;;;;;;;;5047561;28;20035;-75
2024/01/08 10:46:58;;;;;;;5.15;3.42;;;;;;;;;;5049383;28;20013;-75
2024/01/08 10:49:31;;;;;;;5.93;2.90;;;;;;;;;;5049117;28;20032;-75
2024/01/08 10:52:01;;;;;;;8.75;3.55;;;;;;;;;;5047656;28;20026;-75
2024/01/08 10:54:46;;;;;;;5.68;3.55;;;;;;;;;;5049143;28;20025;-75
2024/01/08 10:57:13;;;;;;;5.22;3.42;;;;;;;;;;5055915;28;20505;-75
2024/01/08 10:59:40;;;;;;;4.95;3.55;;;;;;;;;;5053545;28;20017;-75
2024/01/08 11:02:06;;;;;;;8.63;4.15;;;;;;;;;;5058985;28;20032;-75
2024/01/08 11:04:32;;;;;;;7.85;3.53;;;;;;;;;;5047846;28;20028;-75
2024/01/08 11:07:00;;;;;;;6.22;3.78;;;;;;;;;;5048456;28;20021;-75
2024/01/08 11:09:28;;;;;;;7.70;3.95;;;;;;;;;;5044768;28;20020;-75
2024/01/08 11:11:55;;;;;;;4.65;3.40;;;;;;;;;;5047095;28;20044;-75
2024/01/08 11:14:23;;;;;;;6.38;4.18;;;;;;;;;;5047054;28;20082;-75
2024/01/08 11:16:50;;;;;;;12.48;5.35;;;;;;;;;;5049375;28;20192;-75
2024/01/08 11:19:19;;;;;;;7.15;4.15;;;;;;;;;;5053152;28;20048;-75
2024/01/08 11:21:45;;;;;;;6.32;3.95;;;;;;;;;;5061483;28;20020;-75
2024/01/08 11:24:11;;;;;;;7.85;3.80;;;;;;;;;;5051118;28;20032;-75
2024/01/08 11:26:41;;;;;;;5.50;3.50;;;;;;;;;;5047406;28;20409;-75
2024/01/08 11:29:11;;;;;;;5.38;3.80;;;;;;;;;;5047346;28;20249;-75
2024/01/08 11:31:52;;;;;;;5.28;3.50;;;;;;;;;;5047651;28;20497;-75
2024/01/08 11:34:37;;;;;;;6.22;4.20;;;;;;;;;;5042795;28;20029;-75
2024/01/08 11:37:22;;;;;;;5.55;3.83;;;;;;;;;;5042985;28;20044;-75
2024/01/08 11:39:48;;;;;;;6.97;4.30;;;;;;;;;;5045052;28;20051;-75
2024/01/08 11:42:15;;;;;;;8.75;4.35;;;;;;;;;;5045765;28;20074;-75
2024/01/08 11:44:41;;;;;;;6.90;4.10;;;;;;;;;;5051802;28;20054;-75
2024/01/08 11:47:07;;;;;;;7.20;3.80;;;;;;;;;;5052248;28;20028;-76
2024/01/08 11:49:33;;;;;;;6.72;4.07;;;;;;;;;;5053447;28;20033;-75
2024/01/08 11:52:04;;;;;;;6.07;3.90;;;;;;;;;;5063520;28;20467;-75
2024/01/08 11:54:30;;;;;;;8.50;4.43;;;;;;;;;;5045020;28;20028;-75
2024/01/08 11:56:56;;;;;;;9.40;5.57;;;;;;;;;;5053419;28;20025;-75
2024/01/08 11:59:31;;;;;;;7.90;5.07;;;;;;;;;;5049146;28;20389;-75
2024/01/08 12:02:14;;;;;;;5.82;4.47;;;;;;;;;;5049455;28;20396;-75
2024/01/08 12:04:40;;;;;;;5.70;4.68;;;;;;;;;;5050054;28;20017;-75
2024/01/08 12:07:06;;;;;;;5.70;4.18;;;;;;;;;;5049568;28;20032;-75
2024/01/08 12:09:32;;;;;;;5.40;3.67;;;;;;;;;;5049287;28;20432;-75
2024/01/08 12:12:05;;;;;;;6.50;3.63;;;;;;;;;;5049533;28;20103;-75
2024/01/08 12:14:32;;;;;;;8.68;4.55;;;;;;;;;;5051367;28;20424;-75
2024/01/08 12:16:58;;;;;;;5.90;3.90;;;;;;;;;;5050229;28;20021;-75
2024/01/08 12:19:35;;;;;;;6.20;4.35;;;;;;;;;;5049727;28;20059;-75
2024/01/08 12:22:01;;;;;;;4.72;3.67;;;;;;;;;;5048982;28;20465;-75
2024/01/08 12:24:27;;;;;;;5.43;3.38;;;;;;;;;;5050481;28;20032;-75
2024/01/08 12:27:00;;;;;;;6.75;4.00;;;;;;;;;;5049202;28;20109;-75
2024/01/08 12:29:26;;;;;;;4.80;3.75;;;;;;;;;;5050513;28;20027;-75
2024/01/08 12:31:56;;;;;;;5.30;3.80;;;;;;;;;;5049440;28;20020;-75
2024/01/08 12:34:22;;;;;;;3.90;3.40;;;;;;;;;;5054650;28;20021;-75
2024/01/08 12:36:48;;;;;;;5.30;4.03;;;;;;;;;;5048890;28;20555;-75
2024/01/08 12:39:16;;;;;;;7.38;4.30;;;;;;;;;;5049559;28;20020;-75
2024/01/08 12:41:44;;;;;;;5.13;3.67;;;;;;;;;;5049333;28;20016;-76
2024/01/08 12:44:10;;;;;;;5.30;3.30;;;;;;;;;;5053893;28;20119;-75
2024/01/08 12:46:36;;;;;;;4.60;3.60;;;;;;;;;;5055946;28;20051;-76
2024/01/08 12:49:03;;;;;;;5.28;4.00;;;;;;;;;;5054217;28;20025;-76
2024/01/08 12:51:29;;;;;;;6.80;4.05;;;;;;;;;;5064955;28;20074;-76
2024/01/08 12:53:55;;;;;;;4.72;2.78;;;;;;;;;;5056437;28;20044;-76
2024/01/08 12:56:21;;;;;;;5.10;2.95;;;;;;;;;;5047290;28;20420;-76
2024/01/08 12:58:49;;;;;;;5.72;3.25;;;;;;;;;;5054164;28;20021;-75
2024/01/08 13:01:15;;;;;;;5.82;3.97;;;;;;;;;;5050879;28;20052;-75
2024/01/08 13:03:41;;;;;;;4.65;3.10;;;;;;;;;;5053738;28;20116;-75
2024/01/08 13:06:08;;;;;;;6.78;3.55;;;;;;;;;;5055513;28;20111;-75
2024/01/08 13:08:35;;;;;;;5.40;3.75;;;;;;;;;;5057314;28;20021;-75
2024/01/08 13:11:01;;;;;;;6.00;4.00;;;;;;;;;;5058776;28;20500;-76
2024/01/08 13:13:27;;;;;;;6.38;3.67;;;;;;;;;;5055245;28;20473;-76
2024/01/08 13:15:53;;;;;;;5.65;3.90;;;;;;;;;;5055861;28;20021;-76
2024/01/08 13:18:19;;;;;;;4.40;3.35;;;;;;;;;;5056484;28;20353;-76
2024/01/08 13:20:46;;;;;;;5.50;3.75;;;;;;;;;;5053038;28;20444;-76
2024/01/08 13:23:13;;;;;;;5.85;3.55;;;;;;;;;;5058108;28;20020;-75
2024/01/08 13:25:39;;;;;;;5.53;3.60;;;;;;;;;;5052085;28;20081;-76
2024/01/08 13:28:05;;;;;;;5.22;4.10;;;;;;;;;;5054196;28;20078;-76
2024/01/08 13:30:31;;;;;;;4.97;3.70;;;;;;;;;;5052247;28;20025;-75
2024/01/08 13:32:57;;;;;;;5.28;3.97;;;;;;;;;;5045612;28;20428;-75
2024/01/08 13:35:23;;;;;;;5.07;3.50;;;;;;;;;;5048376;28;20166;-76
2024/01/08 13:37:49;;;;;;;5.15;3.75;;;;;;;;;;5049553;28;20079;-75
2024/01/08 13:40:15;;;;;;;6.32;3.83;;;;;;;;;;5049854;28;20620;-76
2024/01/08 13:42:42;;;;;;;6.20;3.92;;;;;;;;;;5049134;28;20346;-76
2024/01/08 13:45:08;;;;;;;7.95;3.63;;;;;;;;;;5050182;28;20027;-76
2024/01/08 13:47:34;;;;;;;4.25;3.22;;;;;;;;;;5052922;28;20415;-75
2024/01/08 13:50:01;;;;;;;7.68;4.10;;;;;;;;;;5046476;28;20358;-76
2024/01/08 13:52:27;;;;;;;5.63;3.53;;;;;;;;;;5046708;28;20524;-76
2024/01/08 13:54:53;;;;;;;3.92;3.00;;;;;;;;;;5047634;28;20052;-76
2024/01/08 13:57:19;;;;;;;6.72;3.63;;;;;;;;;;5047183;28;20492;-75
2024/01/08 13:59:45;;;;;;;5.57;3.75;;;;;;;;;;5047014;28;20025;-75
2024/01/08 14:02:12;;;;;;;5.78;3.60;;;;;;;;;;5048681;28;20005;-75
2024/01/08 14:04:39;;;;;;;5.40;3.70;;;;;;;;;;5048081;28;20020;-76
2024/01/08 14:07:04;;;;;;;5.05;3.25;;;;;;;;;;5047188;28;20469;-75
2024/01/08 14:09:30;;;;;;;5.68;3.50;;;;;;;;;;5047032;28;20075;-75
2024/01/08 14:11:57;;;;;;;6.10;4.03;;;;;;;;;;5048472;28;20009;-76
2024/01/08 14:14:23;;;;;;;5.32;3.67;;;;;;;;;;5046610;28;20497;-74
2024/01/08 14:16:49;;;;;;;5.18;3.53;;;;;;;;;;5033818;28;20106;-75
2024/01/08 14:19:15;;;;;;;6.32;4.03;;;;;;;;;;5047993;28;20425;-75
2024/01/08 14:21:41;;;;;;;7.25;3.78;;;;;;;;;;5046366;28;20344;-75
2024/01/08 14:24:08;;;;;;;6.55;3.72;;;;;;;;;;5047549;28;20142;-75
2024/01/08 14:26:34;;;;;;;6.28;4.38;;;;;;;;;;5046877;28;20017;-75
2024/01/08 14:28:59;;;;;;;7.22;5.10;;;;;;;;;;5048403;28;20486;-75
2024/01/08 14:31:26;;;;;;;7.25;4.72;;;;;;;;;;5046589;28;20032;-75
2024/01/08 14:33:52;;;;;;;8.43;4.20;;;;;;;;;;5046605;28;20048;-74
2024/01/08 14:36:19;;;;;;;7.10;4.82;;;;;;;;;;5046384;28;20048;-75